Time;durP1;ratioP1;P1;durP2;ratioP2;P2;SDS_P1;SDS_P2;PMS_P1;PMS_P2;Temp;Humidity;BMP_temperature;BMP_pressure;BME280_temperature;BME280_humidity;BME280_pressure;Samples;Min_cycle;Max_cycle;Signal;HPM_P1;HPM_P2
2022/09/08 00:00:41;;;;;;;3.95;1.92;;;23.70;68.70;;;;;;5090817;28;20040;-64
2022/09/08 00:03:09;;;;;;;3.30;2.08;;;23.70;68.70;;;;;;5091106;28;20044;-64
2022/09/08 00:05:39;;;;;;;3.92;2.13;;;23.70;68.70;;;;;;5091857;28;20048;-64
2022/09/08 00:08:05;;;;;;;3.35;2.20;;;23.70;68.60;;;;;;5091007;28;20044;-64
2022/09/08 00:10:30;;;;;;;3.88;2.10;;;23.70;68.70;;;;;;5090533;28;20040;-64
2022/09/08 00:12:56;;;;;;;2.85;1.80;;;23.70;68.60;;;;;;5090716;28;20518;-64
2022/09/08 00:15:21;;;;;;;4.63;2.30;;;23.60;68.60;;;;;;5090214;28;20040;-64
2022/09/08 00:17:47;;;;;;;2.88;1.92;;;23.60;68.60;;;;;;5091213;28;20131;-64
2022/09/08 00:20:22;;;;;;;3.13;2.30;;;23.70;68.60;;;;;;5091622;28;20082;-64
2022/09/08 00:22:47;;;;;;;5.30;2.38;;;23.60;68.60;;;;;;5091801;28;20399;-64
2022/09/08 00:25:13;;;;;;;3.55;2.08;;;23.60;68.60;;;;;;5089848;28;20473;-64
2022/09/08 00:27:41;;;;;;;4.35;2.22;;;23.60;68.60;;;;;;5091940;28;20454;-65
2022/09/08 00:30:07;;;;;;;2.78;2.00;;;23.60;68.60;;;;;;5091170;28;20399;-64
2022/09/08 00:32:33;;;;;;;2.80;1.80;;;23.60;68.60;;;;;;5091523;28;20049;-64
2022/09/08 00:35:00;;;;;;;4.57;2.33;;;23.60;68.60;;;;;;5091970;28;20108;-64
2022/09/08 00:37:27;;;;;;;3.33;2.10;;;23.60;68.60;;;;;;5090450;28;20060;-64
2022/09/08 00:39:53;;;;;;;3.72;2.15;;;23.60;68.50;;;;;;5091834;28;20079;-64
2022/09/08 00:42:18;;;;;;;3.63;1.92;;;23.60;68.50;;;;;;5091364;28;20079;-63
2022/09/08 00:44:53;;;;;;;5.15;2.40;;;23.60;68.60;;;;;;5090444;28;20050;-64
2022/09/08 00:47:29;;;;;;;3.88;2.40;;;23.60;68.50;;;;;;5091125;28;20047;-64
2022/09/08 00:50:09;;;;;;;2.83;1.88;;;23.60;68.50;;;;;;5092430;28;20040;-64
2022/09/08 00:52:41;;;;;;;4.03;2.35;;;23.60;68.50;;;;;;5094410;28;20056;-64
2022/09/08 00:55:08;;;;;;;3.70;2.05;;;23.60;68.50;;;;;;5095216;28;20040;-64
2022/09/08 00:57:33;;;;;;;4.70;2.55;;;23.60;68.50;;;;;;5094871;28;20052;-64
2022/09/08 00:59:59;;;;;;;3.53;2.10;;;23.60;68.50;;;;;;5093263;28;20104;-64
2022/09/08 01:02:25;;;;;;;4.25;2.60;;;23.60;68.50;;;;;;5110803;28;20039;-64
2022/09/08 01:04:53;;;;;;;4.18;2.42;;;23.60;68.50;;;;;;5095142;28;20036;-64
2022/09/08 01:13:21;;;;;;;4.60;2.20;;;23.60;68.40;;;;;;5094065;28;20126;-64
2022/09/08 01:15:47;;;;;;;3.78;2.10;;;23.50;68.40;;;;;;5095106;28;20560;-64
2022/09/08 01:18:13;;;;;;;2.90;2.20;;;23.50;68.40;;;;;;5094998;28;20081;-64
2022/09/08 01:20:44;;;;;;;3.53;2.38;;;23.50;68.40;;;;;;5093818;28;20079;-64
2022/09/08 01:23:42;;;;;;;3.83;2.33;;;23.50;68.40;;;;;;5093504;28;20036;-64
2022/09/08 01:26:23;;;;;;;3.72;2.45;;;23.50;68.40;;;;;;5093565;28;20048;-63
2022/09/08 01:28:54;;;;;;;5.22;2.55;;;23.50;68.40;;;;;;5076760;28;20040;-64
2022/09/08 01:31:20;;;;;;;3.85;2.25;;;23.50;68.50;;;;;;5092841;28;20425;-64
2022/09/08 01:33:45;;;;;;;3.58;2.47;;;23.50;68.40;;;;;;5109618;28;20043;-65
2022/09/08 01:36:13;;;;;;;3.50;1.98;;;23.50;68.40;;;;;;5094452;28;20081;-65
2022/09/08 01:38:38;;;;;;;4.28;2.45;;;23.50;68.40;;;;;;5094532;28;20115;-65
2022/09/08 01:41:04;;;;;;;3.00;2.15;;;23.50;68.40;;;;;;5093696;28;20436;-65
2022/09/08 01:43:30;;;;;;;3.70;2.40;;;23.50;68.40;;;;;;5094315;28;20051;-65
2022/09/08 01:45:56;;;;;;;3.33;2.40;;;23.50;68.40;;;;;;5094023;28;20048;-65
2022/09/08 01:48:21;;;;;;;4.75;2.53;;;23.50;68.40;;;;;;5092994;28;20111;-65
2022/09/08 01:50:47;;;;;;;5.20;2.40;;;23.50;68.40;;;;;;5094277;28;20051;-65
2022/09/08 01:53:12;;;;;;;3.70;2.47;;;23.50;69.00;;;;;;5094188;28;20063;-64
2022/09/08 01:55:38;;;;;;;3.20;2.45;;;23.50;68.40;;;;;;5093089;28;20409;-65
2022/09/08 01:58:03;;;;;;;4.18;2.53;;;23.50;68.40;;;;;;5094168;28;20040;-65
2022/09/08 02:00:32;;;;;;;4.05;2.40;;;23.50;68.40;;;;;;5092996;28;20044;-65
2022/09/08 02:02:57;;;;;;;4.38;2.60;;;23.40;68.40;;;;;;5091787;28;20040;-65
2022/09/08 02:05:26;;;;;;;3.83;2.50;;;23.40;68.40;;;;;;5093357;28;20055;-65
2022/09/08 02:07:52;;;;;;;4.03;2.45;;;23.50;68.40;;;;;;5092873;28;20048;-65
2022/09/08 02:10:18;;;;;;;3.65;2.42;;;23.40;68.30;;;;;;5092792;28;20075;-65
2022/09/08 02:12:43;;;;;;;4.20;2.78;;;23.40;68.40;;;;;;5093227;28;20086;-65
2022/09/08 02:15:10;;;;;;;3.70;2.10;;;23.40;68.30;;;;;;5093872;28;20499;-65
2022/09/08 02:17:35;;;;;;;3.70;2.58;;;23.50;68.30;;;;;;5092835;28;20044;-65
2022/09/08 02:20:01;;;;;;;3.50;2.47;;;23.40;68.30;;;;;;5093708;28;20036;-64
2022/09/08 02:22:27;;;;;;;3.67;2.53;;;23.40;68.30;;;;;;5093501;28;20115;-64
2022/09/08 02:24:52;;;;;;;4.07;2.53;;;23.40;68.30;;;;;;5092717;28;20137;-65
2022/09/08 02:27:18;;;;;;;3.50;2.80;;;23.40;68.30;;;;;;5093229;28;20039;-65
2022/09/08 02:29:44;;;;;;;3.45;2.63;;;23.40;68.80;;;;;;5092756;28;20479;-65
2022/09/08 02:32:09;;;;;;;3.17;2.47;;;23.40;68.20;;;;;;5091985;28;20487;-65
2022/09/08 02:34:35;;;;;;;4.10;2.65;;;23.40;68.30;;;;;;5091768;28;20052;-64
2022/09/08 02:37:00;;;;;;;3.47;2.72;;;23.40;68.30;;;;;;5092377;28;20084;-64
2022/09/08 02:39:26;;;;;;;3.78;2.40;;;23.40;68.20;;;;;;5093116;28;20483;-63
2022/09/08 02:41:53;;;;;;;3.13;2.58;;;23.40;68.20;;;;;;5093253;28;20492;-64
2022/09/08 02:44:18;;;;;;;3.28;2.58;;;23.40;68.20;;;;;;5092320;28;20498;-64
2022/09/08 02:46:44;;;;;;;4.28;2.97;;;23.40;68.20;;;;;;5092764;28;20036;-63
2022/09/08 02:49:13;;;;;;;3.60;2.58;;;23.40;68.20;;;;;;5092010;28;20040;-64
2022/09/08 02:51:39;;;;;;;3.72;2.33;;;23.40;68.20;;;;;;5092430;28;20040;-64
2022/09/08 02:54:05;;;;;;;4.45;2.60;;;23.40;68.20;;;;;;5093112;28;20036;-64
2022/09/08 02:56:30;;;;;;;4.43;2.90;;;23.40;68.20;;;;;;5091140;28;20094;-64
2022/09/08 02:58:56;;;;;;;4.53;2.50;;;23.40;68.20;;;;;;5092295;28;20089;-64
2022/09/08 03:01:21;;;;;;;3.42;2.53;;;23.40;68.20;;;;;;5092366;28;20094;-64
2022/09/08 03:03:47;;;;;;;3.70;2.60;;;23.40;68.20;;;;;;5092961;28;20043;-64
2022/09/08 03:06:14;;;;;;;4.63;3.10;;;23.40;68.20;;;;;;5092164;28;20067;-64
2022/09/08 03:08:40;;;;;;;4.00;2.60;;;23.40;68.20;;;;;;5092905;28;20036;-64
2022/09/08 03:11:05;;;;;;;4.15;3.15;;;23.40;68.10;;;;;;5092536;28;20055;-65
2022/09/08 03:13:31;;;;;;;5.22;2.85;;;23.40;68.10;;;;;;5090927;28;20070;-64
2022/09/08 03:15:57;;;;;;;4.78;3.05;;;23.40;68.10;;;;;;5092792;28;20048;-64
2022/09/08 03:18:22;;;;;;;4.38;2.75;;;23.40;68.20;;;;;;5091749;28;20093;-64
2022/09/08 03:21:04;;;;;;;3.40;2.85;;;23.40;68.10;;;;;;5091064;28;20087;-63
2022/09/08 03:23:30;;;;;;;2.90;2.47;;;23.40;68.10;;;;;;5091079;28;20384;-64
2022/09/08 03:25:56;;;;;;;4.00;3.20;;;23.40;68.10;;;;;;5091225;28;20086;-63
2022/09/08 03:28:23;;;;;;;3.28;2.80;;;23.40;68.10;;;;;;5107713;28;20557;-63
2022/09/08 03:30:49;;;;;;;3.97;2.90;;;23.40;68.10;;;;;;5091140;28;20044;-63
2022/09/08 03:33:15;;;;;;;3.47;2.75;;;23.40;68.10;;;;;;5091422;28;20044;-64
2022/09/08 03:35:41;;;;;;;4.13;2.85;;;23.40;68.10;;;;;;5091776;28;20415;-64
2022/09/08 03:38:07;;;;;;;3.63;2.70;;;23.30;68.10;;;;;;5092219;28;20044;-64
2022/09/08 03:40:38;;;;;;;3.83;2.95;;;23.30;68.10;;;;;;5091531;28;20568;-63
2022/09/08 03:43:05;;;;;;;3.47;2.88;;;23.30;68.10;;;;;;5108009;27;20047;-64
2022/09/08 03:45:31;;;;;;;3.88;3.10;;;23.30;68.10;;;;;;5092188;28;20048;-64
2022/09/08 03:47:56;;;;;;;4.30;3.00;;;23.30;68.10;;;;;;5091458;28;20071;-64
2022/09/08 03:50:22;;;;;;;4.53;3.00;;;23.30;68.10;;;;;;5091762;28;20127;-64
2022/09/08 03:52:48;;;;;;;3.45;2.67;;;23.30;68.00;;;;;;5092053;28;20131;-64
2022/09/08 03:55:13;;;;;;;4.13;2.80;;;23.30;68.00;;;;;;5090620;28;20040;-64
2022/09/08 03:57:39;;;;;;;3.55;2.80;;;23.30;68.10;;;;;;5092037;28;20048;-64
2022/09/08 04:00:07;;;;;;;4.45;2.65;;;23.30;68.10;;;;;;5091931;28;20040;-64
2022/09/08 04:02:32;;;;;;;4.38;3.20;;;23.30;68.10;;;;;;5091050;28;20040;-64
2022/09/08 04:04:58;;;;;;;4.03;2.97;;;23.30;68.10;;;;;;5089733;28;20040;-64
2022/09/08 04:07:26;;;;;;;4.57;3.20;;;23.30;68.10;;;;;;5090780;28;20079;-64
2022/09/08 04:09:52;;;;;;;3.72;2.80;;;23.30;68.10;;;;;;5091233;28;20062;-64
2022/09/08 04:12:17;;;;;;;4.30;2.90;;;23.30;68.10;;;;;;5091457;28;20505;-64
2022/09/08 04:14:43;;;;;;;3.83;2.67;;;23.30;68.10;;;;;;5092241;28;20081;-64
2022/09/08 04:17:09;;;;;;;4.25;2.92;;;23.30;68.10;;;;;;5091139;28;20126;-64
2022/09/08 04:19:34;;;;;;;4.47;3.17;;;23.30;68.10;;;;;;5091735;28;20384;-64
2022/09/08 04:22:00;;;;;;;3.28;2.95;;;23.20;68.00;;;;;;5091842;28;20044;-64
2022/09/08 04:24:26;;;;;;;3.20;2.72;;;23.30;68.10;;;;;;5124517;27;20036;-64
2022/09/08 04:26:52;;;;;;;3.33;2.80;;;23.30;68.10;;;;;;5095840;28;20051;-65
2022/09/08 04:29:17;;;;;;;3.92;2.95;;;23.30;68.00;;;;;;5094828;28;20067;-64
2022/09/08 04:31:43;;;;;;;4.50;3.38;;;23.20;68.00;;;;;;5095648;28;20081;-64
2022/09/08 04:34:09;;;;;;;4.57;3.00;;;23.30;68.00;;;;;;5095487;28;20472;-64
2022/09/08 04:36:35;;;;;;;3.90;3.00;;;23.30;68.00;;;;;;5076430;28;20052;-64
2022/09/08 04:39:00;;;;;;;3.95;2.97;;;23.30;68.00;;;;;;5095743;28;20036;-64
2022/09/08 04:41:27;;;;;;;4.78;3.55;;;23.20;68.00;;;;;;5094922;28;20058;-64
2022/09/08 04:43:54;;;;;;;5.60;3.63;;;23.20;68.00;;;;;;5094919;28;20036;-64
2022/09/08 04:46:20;;;;;;;4.13;2.90;;;23.20;68.00;;;;;;5095256;28;20122;-64
2022/09/08 04:48:46;;;;;;;4.43;3.72;;;23.20;68.00;;;;;;5095427;28;20510;-64
2022/09/08 04:51:16;;;;;;;3.90;3.00;;;23.20;68.00;;;;;;5126882;27;20040;-64
2022/09/08 04:53:42;;;;;;;4.72;3.08;;;23.20;68.00;;;;;;5094961;28;20444;-64
2022/09/08 04:56:08;;;;;;;4.40;3.58;;;23.20;68.00;;;;;;5095003;28;20127;-64
2022/09/08 04:58:35;;;;;;;4.47;3.35;;;23.20;68.00;;;;;;5093256;28;20048;-64
2022/09/08 05:01:11;;;;;;;4.65;3.72;;;23.20;68.00;;;;;;5095307;28;20047;-65
2022/09/08 05:03:36;;;;;;;3.90;3.30;;;23.20;68.00;;;;;;5095237;28;20059;-65
2022/09/08 05:06:09;;;;;;;5.25;3.92;;;23.20;68.00;;;;;;5094129;28;20048;-64
2022/09/08 05:08:35;;;;;;;3.95;3.05;;;23.20;68.00;;;;;;5095308;28;20086;-64
2022/09/08 05:11:01;;;;;;;3.97;3.47;;;23.20;68.00;;;;;;5094461;28;20039;-64
2022/09/08 05:13:26;;;;;;;4.60;3.47;;;23.20;68.00;;;;;;5093949;28;20040;-64
2022/09/08 05:16:11;;;;;;;3.83;3.20;;;23.20;68.00;;;;;;5094964;28;20067;-65
2022/09/08 05:18:37;;;;;;;4.03;3.20;;;23.20;68.00;;;;;;5094007;28;20493;-64
2022/09/08 05:21:06;;;;;;;5.45;3.47;;;23.20;68.00;;;;;;5094699;28;20124;-64
2022/09/08 05:23:31;;;;;;;4.05;3.25;;;23.20;68.00;;;;;;5094539;28;20123;-64
2022/09/08 05:26:06;;;;;;;5.32;4.25;;;23.20;68.00;;;;;;5093452;28;20462;-66
2022/09/08 05:28:34;;;;;;;4.25;3.83;;;23.20;68.00;;;;;;5094789;28;20040;-64
2022/09/08 05:31:00;;;;;;;4.30;3.55;;;23.20;68.00;;;;;;5093129;28;20404;-64
2022/09/08 05:33:25;;;;;;;4.18;3.50;;;23.20;68.00;;;;;;5093262;28;20048;-64
2022/09/08 05:35:51;;;;;;;4.47;3.50;;;23.20;68.00;;;;;;5093385;28;20062;-64
2022/09/08 05:38:17;;;;;;;4.55;3.47;;;23.20;68.00;;;;;;5094174;28;20044;-64
2022/09/08 05:40:42;;;;;;;4.65;3.90;;;23.20;68.00;;;;;;5093280;28;20127;-63
2022/09/08 05:43:08;;;;;;;4.93;3.65;;;23.20;68.00;;;;;;5094264;28;20076;-63
2022/09/08 05:45:33;;;;;;;4.15;3.50;;;23.20;68.00;;;;;;5094478;28;20138;-64
2022/09/08 05:47:59;;;;;;;5.15;3.67;;;23.20;68.00;;;;;;5093083;28;20043;-64
2022/09/08 05:50:25;;;;;;;4.30;3.65;;;23.20;68.00;;;;;;5092765;28;20070;-64
2022/09/08 05:52:51;;;;;;;5.20;4.10;;;23.10;68.00;;;;;;5094147;28;20040;-64
2022/09/08 05:55:17;;;;;;;5.43;4.25;;;23.20;68.00;;;;;;5092817;28;20040;-64
2022/09/08 05:57:42;;;;;;;5.35;4.15;;;23.10;68.00;;;;;;5093823;28;20055;-64
2022/09/08 06:00:09;;;;;;;5.15;4.10;;;23.10;68.10;;;;;;5092483;28;20044;-64
2022/09/08 06:02:34;;;;;;;8.70;4.95;;;23.20;68.00;;;;;;5090564;28;20044;-64
2022/09/08 06:05:00;;;;;;;7.22;4.90;;;23.20;68.20;;;;;;5093741;28;20040;-64
2022/09/08 06:07:25;;;;;;;6.28;4.45;;;23.20;68.30;;;;;;5093133;28;20135;-65
2022/09/08 06:09:52;;;;;;;8.32;5.65;;;23.20;68.30;;;;;;5092601;28;20047;-64
2022/09/08 06:12:17;;;;;;;8.35;5.95;;;23.20;68.40;;;;;;5092869;28;20036;-65
2022/09/08 06:14:43;;;;;;;8.07;6.55;;;23.20;68.50;;;;;;5091425;28;20036;-65
2022/09/08 06:17:09;;;;;;;6.35;5.40;;;23.20;69.20;;;;;;5093150;28;20075;-65
2022/09/08 06:19:35;;;;;;;8.25;5.45;;;23.20;68.60;;;;;;5093911;28;20067;-64
2022/09/08 06:22:03;;;;;;;12.15;5.40;;;23.20;68.70;;;;;;5093056;28;20843;-65
2022/09/08 06:24:31;;;;;;;9.48;6.05;;;23.20;68.80;;;;;;5092692;28;20131;-64
2022/09/08 06:27:44;;;;;;;6.82;5.63;;;23.20;68.80;;;;;;5092317;28;20395;-65
2022/09/08 06:30:14;;;;;;;7.03;5.32;;;23.20;68.80;;;;;;5028237;28;20460;-65
2022/09/08 06:32:44;;;;;;;7.15;4.60;;;23.20;68.90;;;;;;5083989;28;20052;-64
2022/09/08 06:35:29;;;;;;;6.38;4.60;;;23.20;69.00;;;;;;5089981;28;20043;-66
2022/09/08 06:37:59;;;;;;;7.25;4.82;;;23.20;69.00;;;;;;5088349;28;20555;-65
2022/09/08 06:40:45;;;;;;;6.25;4.85;;;23.20;69.20;;;;;;5088329;28;20078;-64
2022/09/08 06:43:11;;;;;;;7.35;4.88;;;23.20;69.30;;;;;;5090743;28;20044;-65
2022/09/08 06:45:40;;;;;;;7.63;4.55;;;23.20;69.30;;;;;;5088354;28;20044;-65
2022/09/08 06:48:14;;;;;;;6.75;5.25;;;23.20;69.30;;;;;;5090632;28;20391;-65
2022/09/08 06:51:12;;;;;;;6.47;5.10;;;23.20;69.30;;;;;;5090725;28;20051;-65
2022/09/08 06:53:42;;;;;;;5.70;5.00;;;23.20;69.40;;;;;;5091311;28;20437;-65
2022/09/08 06:56:25;;;;;;;6.25;4.72;;;23.20;69.40;;;;;;5074667;28;20051;-65
2022/09/08 06:58:52;;;;;;;6.18;5.00;;;23.30;69.50;;;;;;5074119;28;20036;-66
2022/09/08 07:01:23;;;;;;;6.87;4.67;;;23.30;69.50;;;;;;5074025;28;20048;-65
2022/09/08 07:04:00;;;;;;;7.10;5.10;;;23.20;69.40;;;;;;5089304;28;20040;-64
2022/09/08 07:06:28;;;;;;;7.75;5.10;;;23.30;69.50;;;;;;5091106;28;20130;-65
2022/09/08 07:09:28;;;;;;;6.45;4.70;;;23.20;69.40;;;;;;5091142;28;20036;-65
2022/09/08 07:12:14;;;;;;;10.65;5.60;;;23.30;69.40;;;;;;5088204;28;20055;-65
2022/09/08 07:15:28;;;;;;;6.90;5.13;;;23.30;69.50;;;;;;5075948;28;20040;-65
2022/09/08 07:17:59;;;;;;;6.53;4.85;;;23.30;69.50;;;;;;5084577;28;20106;-64
2022/09/08 07:20:26;;;;;;;6.85;5.25;;;23.20;69.50;;;;;;5088121;28;20044;-65
2022/09/08 07:23:00;;;;;;;6.18;4.95;;;23.30;69.60;;;;;;5090599;28;20100;-65
2022/09/08 07:25:27;;;;;;;5.63;4.75;;;23.30;69.60;;;;;;5090144;28;20051;-65
2022/09/08 07:28:23;;;;;;;6.55;5.05;;;23.30;69.60;;;;;;5091537;28;20032;-65
2022/09/08 07:31:03;;;;;;;6.63;5.07;;;23.30;69.60;;;;;;5066214;28;20053;-65
2022/09/08 07:33:38;;;;;;;7.03;5.50;;;23.20;69.60;;;;;;5081398;28;20415;-65
2022/09/08 07:36:10;;;;;;;6.28;4.93;;;23.30;69.60;;;;;;5090646;28;20060;-65
2022/09/08 07:38:47;;;;;;;8.30;5.20;;;23.20;69.60;;;;;;5091162;28;20083;-65
2022/09/08 07:41:25;;;;;;;7.90;5.22;;;23.30;69.70;;;;;;5089605;28;20044;-65
2022/09/08 07:43:52;;;;;;;;;;;23.20;69.60;;;;;;5091726;28;20127;-65
2022/09/08 07:46:37;;;;;;;7.40;4.95;;;23.20;69.40;;;;;;5089853;28;19927;-65
2022/09/08 07:49:24;;;;;;;6.30;5.10;;;23.20;69.60;;;;;;5091253;28;20052;-65
2022/09/08 07:52:31;;;;;;;7.15;5.45;;;23.20;69.50;;;;;;5090754;28;20463;-65
2022/09/08 07:55:06;;;;;;;5.90;5.00;;;23.20;69.60;;;;;;5077104;28;20079;-66
2022/09/08 07:57:35;;;;;;;7.05;5.70;;;23.20;69.70;;;;;;5092112;28;20044;-66
2022/09/08 08:00:36;;;;;;;6.03;5.15;;;23.20;69.60;;;;;;5096022;28;20188;-67
2022/09/08 08:03:38;;;;;;;5.55;4.72;;;23.20;69.70;;;;;;5075529;28;20048;-66
2022/09/08 08:06:49;;;;;;;8.10;5.50;;;23.20;69.50;;;;;;5098945;28;20044;-65
2022/09/08 08:09:41;;;;;;;8.40;5.55;;;23.20;69.50;;;;;;5094862;28;20127;-67
2022/09/08 08:12:32;;;;;;;7.57;5.65;;;23.20;69.70;;;;;;5089232;28;20055;-67
2022/09/08 08:15:09;;;;;;;8.55;5.03;;;23.20;70.30;;;;;;5096188;28;20040;-66
2022/09/08 08:17:57;;;;;;;7.38;5.20;;;23.20;69.80;;;;;;5097949;28;20568;-66
2022/09/08 08:20:43;;;;;;;6.85;5.38;;;23.20;69.90;;;;;;5094327;28;20047;-65
2022/09/08 08:23:17;;;;;;;7.00;6.00;;;23.20;69.90;;;;;;5093321;28;20043;-66
2022/09/08 08:25:58;;;;;;;6.95;5.38;;;23.20;69.90;;;;;;5098249;28;20556;-66
2022/09/08 08:28:24;;;;;;;6.90;5.60;;;23.20;69.90;;;;;;5097211;28;20085;-66
2022/09/08 08:31:08;;;;;;;8.60;6.05;;;23.20;69.80;;;;;;5097476;28;20039;-66
2022/09/08 08:33:45;;;;;;;8.00;6.20;;;23.20;69.70;;;;;;5097001;28;20056;-66
2022/09/08 08:36:13;;;;;;;8.23;6.03;;;23.20;69.80;;;;;;5097120;28;20450;-66
2022/09/08 08:38:43;;;;;;;6.93;5.90;;;23.20;69.80;;;;;;5097055;28;20071;-65
2022/09/08 08:41:35;;;;;;;9.27;6.22;;;23.20;69.80;;;;;;5096638;28;20089;-65
2022/09/08 08:44:12;;;;;;;12.25;6.53;;;23.20;69.70;;;;;;5074141;28;20048;-64
2022/09/08 08:46:47;;;;;;;7.07;6.18;;;23.20;69.80;;;;;;5098650;28;20036;-62
2022/09/08 08:49:44;;;;;;;8.73;6.68;;;23.20;69.80;;;;;;5079347;28;20083;-65
2022/09/08 08:52:31;;;;;;;10.02;5.93;;;23.20;69.80;;;;;;5080732;28;20044;-66
2022/09/08 08:55:04;;;;;;;10.50;6.00;;;23.20;70.00;;;;;;5098595;28;20129;-66
2022/09/08 08:57:53;;;;;;;7.50;5.57;;;23.20;70.10;;;;;;5095304;28;20502;-66
2022/09/08 09:00:20;;;;;;;8.63;5.55;;;23.20;70.10;;;;;;5097942;28;20438;-66
2022/09/08 09:03:04;;;;;;;7.55;5.28;;;23.20;70.10;;;;;;5097085;28;20499;-67
2022/09/08 09:05:47;;;;;;;7.00;5.45;;;23.20;70.10;;;;;;5096016;28;20048;-66
2022/09/08 09:08:24;;;;;;;6.47;5.25;;;23.20;70.10;;;;;;5098295;28;20131;-68
2022/09/08 09:11:14;;;;;;;8.73;5.80;;;23.20;70.20;;;;;;5096122;28;20044;-67
2022/09/08 09:13:46;;;;;;;8.70;5.60;;;23.20;70.10;;;;;;5094306;28;20044;-68
2022/09/08 09:16:23;;;;;;;8.68;5.00;;;23.20;70.10;;;;;;5074192;28;20119;-67
2022/09/08 09:19:20;;;;;;;6.15;4.85;;;23.20;70.10;;;;;;5073849;28;20503;-66
2022/09/08 09:21:53;;;;;;;7.10;4.93;;;23.20;70.10;;;;;;5073289;28;20561;-68
2022/09/08 09:24:31;;;;;;;5.40;4.35;;;23.20;70.10;;;;;;5074211;28;20047;-69
2022/09/08 09:27:00;;;;;;;8.77;5.00;;;23.20;70.00;;;;;;5072295;28;20095;-66
2022/09/08 09:29:25;;;;;;;7.45;5.25;;;23.20;70.10;;;;;;5079052;28;20051;-64
2022/09/08 09:32:08;;;;;;;7.30;4.88;;;23.20;70.20;;;;;;5093394;28;20391;-65
2022/09/08 09:35:00;;;;;;;8.88;5.00;;;23.20;70.30;;;;;;5091499;28;20048;-65
2022/09/08 09:37:55;;;;;;;10.27;5.05;;;23.20;70.40;;;;;;5092199;28;20056;-65
2022/09/08 09:40:31;;;;;;;9.05;5.00;;;23.20;70.40;;;;;;5104863;27;20056;-66
2022/09/08 09:43:44;;;;;;;10.07;4.50;;;23.20;70.40;;;;;;5091787;28;20044;-66
2022/09/08 09:46:35;;;;;;;7.03;4.30;;;23.20;70.40;;;;;;5087644;28;20048;-65
2022/09/08 09:49:22;;;;;;;8.07;4.97;;;23.20;70.40;;;;;;5076270;28;20062;-66
2022/09/08 09:52:00;;;;;;;8.60;4.88;;;23.20;70.50;;;;;;5092882;28;20554;-66
2022/09/08 09:54:34;;;;;;;7.18;4.30;;;23.20;70.40;;;;;;5091938;28;20105;-65
2022/09/08 09:57:27;;;;;;;6.53;4.70;;;23.20;70.30;;;;;;5094027;28;20406;-65
2022/09/08 10:00:19;;;;;;;7.72;4.50;;;23.20;70.30;;;;;;5092404;28;20048;-65
2022/09/08 10:03:09;;;;;;;7.18;4.28;;;23.20;70.40;;;;;;5078264;28;20427;-66
2022/09/08 10:06:05;;;;;;;8.68;4.63;;;23.20;70.50;;;;;;5094037;28;20255;-66
2022/09/08 10:08:40;;;;;;;7.18;3.72;;;23.20;70.50;;;;;;5093266;28;20044;-66
2022/09/08 10:11:30;;;;;;;9.57;5.30;;;23.20;70.40;;;;;;5093344;28;20496;-67
2022/09/08 10:14:04;;;;;;;6.72;4.57;;;23.20;70.70;;;;;;5092019;28;20039;-67
2022/09/08 10:16:48;;;;;;;9.60;4.80;;;23.20;70.90;;;;;;5092325;28;20076;-67
2022/09/08 10:19:31;;;;;;;8.73;5.07;;;23.20;70.80;;;;;;5093319;28;20040;-67
2022/09/08 10:22:20;;;;;;;8.93;5.30;;;23.20;71.00;;;;;;5091210;28;20048;-67
2022/09/08 10:25:29;;;;;;;11.25;4.93;;;23.20;71.00;;;;;;5092519;28;20047;-67
2022/09/08 10:28:03;;;;;;;8.00;4.93;;;23.20;71.00;;;;;;5038496;28;20049;-67
2022/09/08 10:30:44;;;;;;;8.27;4.63;;;23.20;71.00;;;;;;5086883;28;20098;-67
2022/09/08 10:33:12;;;;;;;7.38;4.60;;;23.20;71.00;;;;;;5091172;28;20096;-66
2022/09/08 10:35:43;;;;;;;10.10;4.30;;;23.20;70.90;;;;;;5091833;28;20101;-67
2022/09/08 10:38:46;;;;;;;7.50;4.18;;;23.20;70.80;;;;;;5093367;28;20043;-66
2022/09/08 10:41:41;;;;;;;6.78;3.80;;;23.20;70.70;;;;;;5092161;28;20055;-68
2022/09/08 10:44:13;;;;;;;7.75;4.40;;;23.20;70.70;;;;;;5073859;28;20040;-67
2022/09/08 10:47:13;;;;;;;12.80;4.10;;;23.20;70.60;;;;;;5091218;28;20407;-65
2022/09/08 10:49:58;;;;;;;10.50;4.35;;;23.20;70.50;;;;;;5089538;28;20075;-68
2022/09/08 10:52:48;;;;;;;13.05;5.28;;;23.20;70.50;;;;;;5089772;28;20090;-68
2022/09/08 10:55:42;;;;;;;9.25;4.25;;;23.20;71.00;;;;;;5091780;28;20032;-67
2022/09/08 10:58:33;;;;;;;11.98;5.15;;;23.20;70.50;;;;;;5089854;28;20161;-67
2022/09/08 11:01:31;;;;;;;12.70;5.43;;;23.20;70.70;;;;;;5093058;28;20050;-67
2022/09/08 11:04:24;;;;;;;11.93;6.70;;;23.20;70.70;;;;;;5074513;28;20075;-67
2022/09/08 11:07:21;;;;;;;14.18;6.60;;;23.20;70.80;;;;;;5093110;28;20040;-67
2022/09/08 11:10:02;;;;;;;13.80;6.28;;;23.20;70.80;;;;;;5091880;28;20059;-67
2022/09/08 11:12:50;;;;;;;13.63;5.60;;;23.20;70.80;;;;;;5090270;28;20491;-67
2022/09/08 11:15:39;;;;;;;14.23;6.10;;;23.20;70.80;;;;;;5091235;28;20048;-68
2022/09/08 11:18:34;;;;;;;12.82;5.93;;;23.10;70.80;;;;;;5091035;28;20549;-68
2022/09/08 11:21:02;;;;;;;15.20;6.25;;;23.20;70.80;;;;;;5065115;28;20071;-69
2022/09/08 11:23:45;;;;;;;14.40;5.82;;;23.10;70.90;;;;;;5091156;28;20048;-68
2022/09/08 11:26:31;;;;;;;15.25;5.88;;;23.20;70.90;;;;;;5090466;28;20065;-68
2022/09/08 11:29:09;;;;;;;20.08;6.50;;;23.20;70.90;;;;;;5075466;28;20040;-65
2022/09/08 11:32:02;;;;;;;15.18;6.00;;;23.10;70.90;;;;;;5071362;28;20094;-67
2022/09/08 11:34:54;;;;;;;11.40;4.95;;;23.10;70.80;;;;;;5071165;28;20044;-68
2022/09/08 11:37:22;;;;;;;15.80;5.63;;;23.10;70.80;;;;;;5084771;28;20051;-67
2022/09/08 11:40:26;;;;;;;15.18;5.63;;;23.10;70.80;;;;;;5084062;28;20055;-66
2022/09/08 11:43:09;;;;;;;12.95;5.13;;;23.20;70.90;;;;;;5092017;28;20120;-66
2022/09/08 11:45:40;;;;;;;15.93;5.63;;;23.10;70.70;;;;;;5090299;28;20044;-66
2022/09/08 11:48:38;;;;;;;13.85;5.03;;;23.10;70.70;;;;;;5092147;28;20067;-68
2022/09/08 11:51:20;;;;;;;12.90;5.47;;;23.10;70.70;;;;;;5091231;28;20170;-67
2022/09/08 11:54:12;;;;;;;9.05;4.80;;;23.10;70.80;;;;;;5090307;28;20043;-67
2022/09/08 11:57:15;;;;;;;9.23;4.80;;;23.10;70.80;;;;;;5111305;28;20040;-67
2022/09/08 11:59:49;;;;;;;14.13;4.70;;;23.10;70.80;;;;;;5091219;28;20472;-67
2022/09/08 12:02:35;;;;;;;11.23;4.85;;;23.10;70.90;;;;;;5091043;28;20049;-67
2022/09/08 12:05:16;;;;;;;13.57;4.72;;;23.10;70.80;;;;;;5092353;28;20396;-67
2022/09/08 12:07:55;;;;;;;9.95;4.55;;;23.10;70.90;;;;;;5090638;28;20476;-67
2022/09/08 12:10:38;;;;;;;10.70;4.63;;;23.10;71.00;;;;;;5058778;28;20109;-68
2022/09/08 12:13:29;;;;;;;14.98;5.15;;;23.20;71.00;;;;;;5091013;28;20052;-68
2022/09/08 12:16:32;;;;;;;11.20;4.80;;;23.10;71.00;;;;;;5092090;28;20041;-68
2022/09/08 12:19:23;;;;;;;13.98;4.97;;;23.10;71.00;;;;;;5090656;28;20089;-67
2022/09/08 12:21:58;;;;;;;10.75;4.75;;;23.10;70.90;;;;;;5088682;28;20052;-68
2022/09/08 12:24:36;;;;;;;10.95;4.32;;;23.10;71.00;;;;;;5073612;28;20036;-68
2022/09/08 12:27:17;;;;;;;12.40;4.57;;;23.10;71.00;;;;;;5090734;28;20044;-68
2022/09/08 12:29:52;;;;;;;11.13;5.28;;;23.10;71.00;;;;;;5089671;28;20097;-67
2022/09/08 12:32:41;;;;;;;9.40;4.65;;;23.10;71.00;;;;;;5091682;28;20044;-67
2022/09/08 12:35:08;;;;;;;9.55;4.05;;;23.10;71.00;;;;;;5089832;28;20040;-67
2022/09/08 12:38:03;;;;;;;7.30;3.97;;;23.10;71.00;;;;;;5091497;28;20067;-68
2022/09/08 12:41:14;;;;;;;9.10;3.72;;;23.10;71.00;;;;;;5089042;28;20419;-67
2022/09/08 12:43:42;;;;;;;12.85;5.05;;;23.10;70.90;;;;;;5058532;28;20040;-67
2022/09/08 12:46:24;;;;;;;9.32;4.10;;;23.10;71.00;;;;;;5091446;28;20048;-69
2022/09/08 12:49:15;;;;;;;8.15;4.72;;;23.10;71.10;;;;;;5091808;28;20047;-68
2022/09/08 12:51:40;;;;;;;9.10;4.22;;;23.10;71.10;;;;;;5094690;28;20507;-69
2022/09/08 12:54:24;;;;;;;11.07;4.07;;;23.10;71.10;;;;;;5094451;28;20044;-68
2022/09/08 12:57:21;;;;;;;9.50;3.53;;;23.10;71.10;;;;;;5093607;28;20040;-68
2022/09/08 12:59:50;;;;;;;10.98;4.35;;;23.20;71.10;;;;;;5094590;28;20048;-68
2022/09/08 13:02:25;;;;;;;11.45;4.13;;;23.10;71.10;;;;;;5095132;28;20044;-69
2022/09/08 13:05:15;;;;;;;12.10;3.58;;;23.20;71.10;;;;;;5093585;28;20043;-70
2022/09/08 13:07:57;;;;;;;8.55;3.75;;;23.20;71.10;;;;;;5094921;28;20036;-70
2022/09/08 13:10:37;;;;;;;8.55;3.38;;;23.20;71.00;;;;;;5090592;28;20085;-71
2022/09/08 13:13:27;;;;;;;6.72;3.15;;;23.10;70.90;;;;;;5078209;28;20551;-71
2022/09/08 13:16:22;;;;;;;11.15;3.40;;;23.20;71.00;;;;;;5093618;28;20064;-70
2022/09/08 13:18:48;;;;;;;6.05;3.63;;;23.20;70.90;;;;;;5081439;28;20463;-70
2022/09/08 13:21:23;;;;;;;10.57;3.88;;;23.20;71.00;;;;;;5094769;28;20040;-70
2022/09/08 13:23:58;;;;;;;6.68;3.10;;;23.20;71.00;;;;;;5093441;28;20047;-68
2022/09/08 13:26:59;;;;;;;7.13;3.70;;;23.20;71.00;;;;;;5090372;28;20047;-69
2022/09/08 13:29:33;;;;;;;6.88;3.30;;;23.20;70.90;;;;;;5064935;28;20080;-68
2022/09/08 13:32:19;;;;;;;7.03;3.22;;;23.20;71.00;;;;;;5093884;28;20040;-69